Airfield :
LOGIN :

Register | Disclaimer

   EN    FR    IT 

 










Legend :    VFR   Marginal VFR   IFR   Intensive IFR   Very Intensive IFR
Visi :
Ceiling :
>= 8 km
>= 3000ft
5 to 8 km
1000 to 3000 ft
1500m to 5 km
500 to 1000 ft
800 to 1500m
200 to 500 ft
< 800m
< 200 ft
Symbols :   Thunderstorms  Fog  Heavy snow  Heavy precipitations  Wind > 20 kt
SIGMETs :     Misc.  Thunderstorms  Icing  Turbulence  Mountain Waves  Volcanic Ashes






- Airport Elevation : 72 ft
- IATA code : UDE


EHVK - Volkel Airbase

CURRENT METAR :
  • 081155Z AUTO VRB02KT 9999 NCD 24/05 Q1024 BLU

EXPIRED METARs :
  • 081125Z AUTO VRB03KT 9999 NCD 23/07 Q1024 BLU
  • 081055Z AUTO 24003KT 240V040 9999 NCD 23/08 Q1024 BLU
  • 081025Z AUTO VRB02KT 9999 NCD 22/08 Q1024 BLU
  • 081008Z AUTO VRB02KT 9999 BKN330 21/08 Q1025 BLU
  • 080955Z AUTO VRB02KT 9999 OVC330 21/08 Q1025 BLU VRB02KT CAVOK
  • 080936Z AUTO VRB01KT 9999 OVC360 20/09 Q1025 BLU VRB02KT CAVOK
  • 080925Z AUTO VRB01KT 9999 OVC360 19/10 Q1025 BLU VRB02KT CAVOK
  • 080913Z AUTO VRB01KT 9000 HZ OVC360 18/10 Q1025 YLO VRB02KT CAVOK
  • 080855Z AUTO VRB01KT 9000 HZ SCT350 17/10 Q1025 BLU VRB03KT CAVOK

TAF TAF EHVK
Valid from the 08 at 09:00 until the 08 at 21:00 UTC


080844Z 0809/0821 VRB03KT CAVOK
BECMG 0819/0821 03005KT



MET'MAP, your aeronautical weather chart ! - Copyright ORBIFLY December 2007 - Disclaimer

ORBIFLY MET'MAP TEAM :

Programming & Development : Alexandra Zaïnal
Concept & original design : Baudouin d'Aumeries
Assistance for programming : Marc-Olivier Méhu
Technical & hardware support : Manuel Goepfert

Contact : metmap@orbifly.com




SOURCES & CREDITS :

   NOAA